Time;durP1;ratioP1;P1;durP2;ratioP2;P2;SDS_P1;SDS_P2;PMS_P1;PMS_P2;Temp;Humidity;BMP_temperature;BMP_pressure;BME280_temperature;BME280_humidity;BME280_pressure;Samples;Min_cycle;Max_cycle;Signal;HPM_P1;HPM_P2
2022/04/19 00:01:09;;;;;;;9.68;6.20;;;;;;;8.74;59.36;100388.50;5053702;28;20032;-81
2022/04/19 00:03:34;;;;;;;12.43;5.95;;;;;;;8.46;59.72;100383.56;5053865;28;20025;-81
2022/04/19 00:06:00;;;;;;;20.60;6.55;;;;;;;8.51;60.55;100384.06;5053268;28;20467;-79
2022/04/19 00:08:26;;;;;;;9.55;5.63;;;;;;;8.57;61.09;100377.38;5054195;28;20486;-81
2022/04/19 00:10:52;;;;;;;13.35;6.55;;;;;;;8.52;61.85;100375.06;5053706;28;20028;-81
2022/04/19 00:13:17;;;;;;;15.13;7.60;;;;;;;8.55;62.42;100364.09;5053087;28;20033;-81
2022/04/19 00:15:42;;;;;;;10.73;6.40;;;;;;;8.66;61.52;100380.19;5054242;28;20036;-81
2022/04/19 00:18:09;;;;;;;14.70;6.78;;;;;;;8.54;62.23;100373.09;5055808;28;20029;-82
2022/04/19 00:20:35;;;;;;;14.95;7.55;;;;;;;8.58;62.33;100371.91;5052990;28;20029;-81
2022/04/19 00:23:03;;;;;;;21.33;8.05;;;;;;;8.60;61.71;100371.78;5052425;28;20478;-81
2022/04/19 00:25:28;;;;;;;13.90;7.75;;;;;;;8.60;62.14;100369.94;5053607;28;20021;-80
2022/04/19 00:27:54;;;;;;;21.38;7.95;;;;;;;8.54;61.46;100362.38;5053489;28;20027;-80
2022/04/19 00:30:19;;;;;;;18.48;6.95;;;;;;;8.50;62.21;100358.22;5053037;28;20021;-80
2022/04/19 00:32:46;;;;;;;16.08;7.72;;;;;;;8.61;62.07;100362.78;5052832;28;20060;-80
2022/04/19 00:35:12;;;;;;;17.10;7.65;;;;;;;8.57;62.49;100355.94;5051757;28;20062;-80
2022/04/19 00:37:39;;;;;;;14.93;7.10;;;;;;;8.59;62.44;100354.81;5053937;28;20458;-80
2022/04/19 00:40:07;;;;;;;15.38;7.32;;;;;;;8.59;61.99;100357.50;5052378;28;20065;-80
2022/04/19 00:42:34;;;;;;;18.02;7.55;;;;;;;8.64;61.86;100351.81;5053354;28;20151;-81
2022/04/19 00:45:02;;;;;;;13.43;6.57;;;;;;;8.55;61.42;100333.75;5053532;28;20032;-80
2022/04/19 00:47:29;;;;;;;11.35;5.93;;;;;;;8.62;61.27;100351.09;5053119;28;20033;-80
2022/04/19 00:49:55;;;;;;;19.25;6.80;;;;;;;8.59;61.57;100328.03;5051802;28;20422;-80
2022/04/19 00:52:21;;;;;;;12.45;7.50;;;;;;;8.53;61.79;100336.53;5053165;28;20029;-80
2022/04/19 00:54:49;;;;;;;11.85;6.10;;;;;;;8.56;62.31;100333.63;5053660;28;20029;-78
2022/04/19 00:57:15;;;;;;;11.65;6.35;;;;;;;8.51;61.53;100327.78;5061540;28;20033;-79
2022/04/19 00:59:41;;;;;;;11.57;6.30;;;;;;;8.51;61.75;100325.09;5061815;28;20047;-78
2022/04/19 01:02:07;;;;;;;14.95;7.20;;;;;;;8.53;61.71;100315.09;5062195;28;20151;-79
2022/04/19 01:04:33;;;;;;;14.57;5.90;;;;;;;8.64;61.96;100336.59;5056380;28;20021;-80
2022/04/19 01:06:58;;;;;;;13.15;5.95;;;;;;;8.61;61.83;100326.09;5055224;28;20036;-81
2022/04/19 01:09:24;;;;;;;14.15;6.68;;;;;;;8.65;60.83;100332.06;5054640;28;20028;-81
2022/04/19 01:14:38;;;;;;;14.93;6.35;;;;;;;8.55;60.54;100315.84;5052073;28;20036;-80
2022/04/19 01:17:09;;;;;;;17.85;6.38;;;;;;;8.60;61.04;100332.41;5052219;28;20116;-81
2022/04/19 01:19:38;;;;;;;19.13;6.45;;;;;;;8.58;61.36;100325.47;5052424;28;20029;-81
2022/04/19 01:22:05;;;;;;;10.45;5.93;;;;;;;8.53;60.66;100323.13;5054110;28;20490;-80
2022/04/19 01:24:31;;;;;;;12.23;6.13;;;;;;;8.46;60.68;100316.56;5052802;28;20036;-80
2022/04/19 01:27:00;;;;;;;20.05;6.22;;;;;;;8.41;60.76;100318.72;5051776;28;20413;-80
2022/04/19 01:29:26;;;;;;;9.32;6.30;;;;;;;8.42;60.88;100319.59;5052048;28;20080;-80
2022/04/19 01:31:52;;;;;;;11.13;6.03;;;;;;;8.51;60.73;100330.47;5052418;28;20594;-80
2022/04/19 01:34:21;;;;;;;10.88;6.25;;;;;;;8.46;61.59;100313.03;5052140;28;20104;-81
2022/04/19 01:36:47;;;;;;;11.88;7.10;;;;;;;8.41;60.59;100318.72;5053042;28;20418;-81
2022/04/19 01:39:12;;;;;;;11.98;6.57;;;;;;;8.49;61.06;100324.38;5052183;28;20033;-81
2022/04/19 01:41:40;;;;;;;10.38;6.60;;;;;;;8.50;60.86;100328.75;5052351;28;20027;-80
2022/04/19 01:44:08;;;;;;;13.15;6.30;;;;;;;8.49;60.23;100320.84;5052046;28;20033;-80
2022/04/19 01:46:35;;;;;;;11.95;7.13;;;;;;;8.59;60.73;100322.66;5052145;28;20103;-80
2022/04/19 01:49:04;;;;;;;10.48;5.72;;;;;;;8.64;60.12;100333.03;5050689;28;20479;-81
2022/04/19 01:51:30;;;;;;;10.13;5.88;;;;;;;8.67;59.75;100320.25;5052079;28;20116;-80
2022/04/19 01:53:56;;;;;;;13.70;5.22;;;;;;;8.63;59.06;100315.25;5051989;28;20112;-81
2022/04/19 01:56:22;;;;;;;8.30;5.05;;;;;;;8.73;57.95;100329.63;5051635;28;20039;-81
2022/04/19 01:58:48;;;;;;;8.82;5.10;;;;;;;8.72;58.11;100323.41;5051943;28;20469;-80
2022/04/19 02:01:14;;;;;;;14.15;5.57;;;;;;;8.71;57.46;100327.06;5052772;28;20414;-81
2022/04/19 02:03:40;;;;;;;6.72;4.68;;;;;;;8.83;57.78;100329.78;5051714;28;20082;-81
2022/04/19 02:06:10;;;;;;;6.75;4.60;;;;;;;8.77;56.87;100322.22;5051778;28;20528;-79
2022/04/19 02:08:37;;;;;;;7.97;4.75;;;;;;;8.83;56.69;100335.13;5051758;28;20025;-81
2022/04/19 02:11:03;;;;;;;9.45;4.70;;;;;;;8.86;56.88;100332.22;5051558;28;20048;-80
2022/04/19 02:13:28;;;;;;;8.15;5.20;;;;;;;8.96;55.78;100338.56;5051275;28;20061;-81
2022/04/19 02:15:54;;;;;;;10.90;4.80;;;;;;;8.96;56.03;100325.16;5051572;28;20115;-80
2022/04/19 02:18:20;;;;;;;11.63;5.07;;;;;;;8.96;55.91;100341.25;5051296;28;20033;-80
2022/04/19 02:20:45;;;;;;;5.07;3.92;;;;;;;8.93;55.64;100331.59;5051134;28;20021;-80
2022/04/19 02:23:14;;;;;;;11.55;4.50;;;;;;;8.99;55.55;100349.88;5054722;28;20406;-79
2022/04/19 02:25:40;;;;;;;11.77;5.43;;;;;;;8.97;55.64;100345.63;5055008;28;20025;-81
2022/04/19 02:28:07;;;;;;;7.53;4.88;;;;;;;8.92;55.51;100351.38;5055091;28;20550;-80
2022/04/19 02:30:33;;;;;;;10.68;5.80;;;;;;;8.85;55.45;100357.31;5055557;28;20063;-80
2022/04/19 02:32:58;;;;;;;7.25;4.90;;;;;;;8.84;55.69;100359.13;5053658;28;20506;-81
2022/04/19 02:35:26;;;;;;;8.50;4.80;;;;;;;8.73;55.69;100351.94;5053757;28;20028;-80
2022/04/19 02:37:53;;;;;;;9.25;4.88;;;;;;;8.73;55.84;100367.19;5055056;28;20031;-80
2022/04/19 02:40:20;;;;;;;9.35;5.20;;;;;;;8.79;56.03;100360.47;5054733;28;20805;-80
2022/04/19 02:42:46;;;;;;;19.88;6.43;;;;;;;8.81;55.74;100354.00;5053775;28;20086;-80
2022/04/19 02:45:12;;;;;;;11.75;5.53;;;;;;;8.89;55.97;100369.50;5053710;28;20029;-80
2022/04/19 02:47:38;;;;;;;15.90;4.85;;;;;;;8.83;56.22;100367.31;5054903;28;20108;-80
2022/04/19 02:50:05;;;;;;;7.15;5.32;;;;;;;8.60;56.21;100361.91;5054831;28;20406;-80
2022/04/19 02:52:31;;;;;;;9.40;5.30;;;;;;;8.77;56.80;100381.19;5053475;28;20029;-80
2022/04/19 02:54:57;;;;;;;9.52;5.55;;;;;;;8.68;57.08;100370.19;5054488;28;20037;-80
2022/04/19 02:57:22;;;;;;;9.25;5.07;;;;;;;8.81;56.84;100380.81;5054820;28;20104;-80
2022/04/19 02:59:48;;;;;;;10.40;5.65;;;;;;;8.84;56.98;100380.59;5054542;28;20438;-80
2022/04/19 03:02:14;;;;;;;24.80;6.53;;;;;;;8.91;56.44;100386.34;5054681;28;20033;-80
2022/04/19 03:04:40;;;;;;;15.52;6.30;;;;;;;8.89;56.99;100386.47;5054892;28;20402;-80
2022/04/19 03:07:05;;;;;;;11.98;6.10;;;;;;;8.97;57.29;100383.16;5054735;28;20067;-80
2022/04/19 03:09:31;;;;;;;9.15;5.53;;;;;;;8.96;57.40;100384.16;5054651;28;20021;-79
2022/04/19 03:11:57;;;;;;;12.70;7.20;;;;;;;8.96;57.49;100378.81;5054613;28;20032;-80
2022/04/19 03:14:23;;;;;;;12.73;6.30;;;;;;;9.07;57.72;100397.56;5054092;28;20021;-80
2022/04/19 03:16:48;;;;;;;13.63;5.22;;;;;;;9.08;57.19;100388.56;5054477;28;20414;-80
2022/04/19 03:19:14;;;;;;;12.73;5.93;;;;;;;9.13;57.29;100394.41;5054063;28;20063;-80
2022/04/19 03:21:40;;;;;;;10.20;5.82;;;;;;;9.13;56.94;100397.09;5054270;28;20114;-81
2022/04/19 03:29:34;;;;;;;14.02;7.38;;;;;;;9.09;57.03;100398.28;5054396;28;20505;-81
2022/04/19 03:32:01;;;;;;;15.38;7.47;;;;;;;9.09;57.12;100395.63;5054537;28;20068;-81
2022/04/19 03:34:27;;;;;;;41.92;9.73;;;;;;;9.08;57.39;100383.19;5053841;28;20040;-79
2022/04/19 03:36:52;;;;;;;20.25;6.75;;;;;;;9.08;57.73;100391.25;5055191;28;20033;-80
2022/04/19 03:39:18;;;;;;;10.65;6.40;;;;;;;9.07;57.30;100384.16;5054982;28;20478;-81
2022/04/19 03:41:44;;;;;;;20.25;7.10;;;;;;;9.08;57.80;100388.56;5054599;28;20059;-80
2022/04/19 03:44:11;;;;;;;7.82;5.32;;;;;;;9.08;57.91;100397.44;5055044;28;20529;-80
2022/04/19 03:47:07;;;;;;;9.50;5.47;;;;;;;9.11;58.12;100383.78;5053539;28;20028;-80
2022/04/19 03:49:24;;;;;;;28.27;8.02;;;;;;;9.02;57.73;100389.03;5053694;28;20051;-80
2022/04/19 03:51:49;;;;;;;8.50;5.18;;;;;;;8.89;57.47;100388.28;5053084;28;20104;-81
2022/04/19 03:54:15;;;;;;;17.13;6.13;;;;;;;8.89;57.79;100388.28;5054268;28;20495;-79
2022/04/19 03:56:40;;;;;;;11.73;6.68;;;;;;;8.91;58.19;100381.81;5052181;28;20021;-80
2022/04/19 03:59:06;;;;;;;28.80;6.90;;;;;;;8.87;58.50;100385.72;5053976;28;20028;-81
2022/04/19 04:01:31;;;;;;;12.35;6.05;;;;;;;8.88;58.54;100386.56;5053256;28;20039;-79
2022/04/19 04:03:57;;;;;;;64.53;10.07;;;;;;;8.91;58.71;100381.81;5053498;28;20510;-79
2022/04/19 04:06:22;;;;;;;40.63;8.73;;;;;;;8.87;59.17;100384.88;5053513;28;20029;-79
2022/04/19 04:08:48;;;;;;;27.45;8.27;;;;;;;8.93;58.68;100387.09;5052025;28;20032;-79
2022/04/19 04:11:13;;;;;;;21.95;9.10;;;;;;;8.93;58.66;100395.13;5053171;28;20033;-79
2022/04/19 04:13:38;;;;;;;17.33;7.68;;;;;;;9.00;58.61;100396.34;5053259;28;20025;-80
2022/04/19 04:16:04;;;;;;;12.75;6.75;;;;;;;9.05;59.05;100399.53;5052713;28;20380;-79
2022/04/19 04:18:31;;;;;;;23.30;8.15;;;;;;;8.92;59.15;100388.03;5053454;28;20109;-80
2022/04/19 04:20:56;;;;;;;30.50;9.20;;;;;;;9.13;59.32;100405.13;5052776;28;20048;-79
2022/04/19 04:23:22;;;;;;;31.67;7.45;;;;;;;9.19;58.80;100396.59;5052962;28;20020;-79
2022/04/19 04:25:47;;;;;;;86.90;10.13;;;;;;;9.34;58.51;100402.56;5052708;28;20041;-82
2022/04/19 04:28:13;;;;;;;41.17;8.88;;;;;;;9.39;58.52;100403.91;5052725;28;20028;-81
2022/04/19 04:30:38;;;;;;;20.52;7.03;;;;;;;9.23;57.73;100408.81;5052498;28;20025;-80
2022/04/19 04:33:03;;;;;;;28.45;6.93;;;;;;;9.33;57.55;100404.41;5052556;28;20041;-79
2022/04/19 04:35:29;;;;;;;69.35;10.27;;;;;;;9.34;57.46;100406.13;5052544;28;20025;-79
2022/04/19 04:37:54;;;;;;;18.13;6.15;;;;;;;9.36;56.98;100411.38;5052689;28;20057;-78
2022/04/19 04:40:20;;;;;;;108.40;13.68;;;;;;;9.40;57.11;100400.25;5052403;28;20103;-81
2022/04/19 04:42:46;;;;;;;56.72;9.68;;;;;;;9.34;57.21;100407.94;5053014;28;20029;-80
2022/04/19 04:45:11;;;;;;;10.75;6.70;;;;;;;9.36;57.41;100414.06;5052421;28;20031;-81
2022/04/19 04:50:21;;;;;;;28.80;7.90;;;;;;;9.49;57.26;100407.56;5052839;28;20040;-79
2022/04/19 04:52:47;;;;;;;30.30;8.13;;;;;;;9.64;56.93;100409.00;5052388;28;20044;-79
2022/04/19 04:55:12;;;;;;;24.98;8.85;;;;;;;9.65;57.03;100412.56;5052271;28;20028;-78
2022/04/19 04:57:38;;;;;;;24.95;8.02;;;;;;;9.76;57.25;100418.75;5053474;28;20043;-79
2022/04/19 05:00:04;;;;;;;21.52;7.70;;;;;;;9.80;56.65;100420.22;5052796;28;20028;-79
2022/04/19 05:02:30;;;;;;;48.25;12.63;;;;;;;9.84;56.97;100421.69;5051816;28;20029;-79
2022/04/19 05:04:55;;;;;;;37.05;9.82;;;;;;;9.91;56.93;100424.72;5053085;28;20071;-78
2022/04/19 05:07:21;;;;;;;80.72;13.90;;;;;;;9.99;57.14;100413.34;5054278;28;20398;-80
2022/04/19 05:09:46;;;;;;;87.97;17.15;;;;;;;10.03;57.26;100414.81;5057915;28;20066;-80
2022/04/19 05:12:12;;;;;;;40.88;11.57;;;;;;;10.03;56.48;100430.94;5052642;28;20449;-79
2022/04/19 05:14:37;;;;;;;29.48;10.70;;;;;;;9.98;56.36;100417.00;5052062;28;20072;-79
2022/04/19 05:17:03;;;;;;;74.70;13.25;;;;;;;9.93;56.24;100425.47;5052446;28;20103;-80
2022/04/19 05:19:28;;;;;;;35.30;10.90;;;;;;;9.93;56.41;100421.91;5052501;28;20055;-79
2022/04/19 05:21:54;;;;;;;25.70;9.90;;;;;;;9.93;56.15;100424.59;5052110;28;20020;-79
2022/04/19 05:24:19;;;;;;;46.00;11.10;;;;;;;10.05;56.65;100428.97;5051804;28;20013;-80
2022/04/19 05:26:44;;;;;;;29.60;11.75;;;;;;;10.14;56.62;100428.25;5051868;28;20021;-81
2022/04/19 05:29:10;;;;;;;28.48;10.77;;;;;;;10.17;56.13;100428.84;5051801;28;20024;-79
2022/04/19 05:31:35;;;;;;;66.78;11.93;;;;;;;10.31;56.69;100431.22;5051691;28;20037;-79
2022/04/19 05:34:01;;;;;;;49.67;12.57;;;;;;;10.35;56.34;100429.13;5051494;28;20025;-79
2022/04/19 05:36:26;;;;;;;40.10;14.18;;;;;;;10.39;55.77;100430.59;5051403;28;20033;-79
2022/04/19 05:38:55;;;;;;;28.73;15.27;;;;;;;10.41;56.23;100436.69;5051569;28;20017;-78
2022/04/19 05:41:21;;;;;;;29.92;15.25;;;;;;;10.37;56.31;100429.84;5051876;28;20017;-80
2022/04/19 05:43:47;;;;;;;23.85;11.65;;;;;;;10.43;56.41;100434.72;5052502;28;20025;-79
2022/04/19 05:46:14;;;;;;;43.85;14.50;;;;;;;10.63;55.88;100447.34;5057446;28;20457;-79
2022/04/19 05:48:40;;;;;;;29.52;11.57;;;;;;;10.60;56.24;100431.47;5051330;28;20033;-79
2022/04/19 05:51:06;;;;;;;20.27;10.63;;;;;;;10.84;56.63;100436.59;5051576;28;20017;-81
2022/04/19 05:53:32;;;;;;;18.90;8.40;;;;;;;10.78;55.79;100421.84;5051717;28;20508;-84
2022/04/19 05:55:57;;;;;;;16.75;8.02;;;;;;;10.83;56.16;100438.44;5051084;28;20032;-82
2022/04/19 05:58:23;;;;;;;27.63;8.38;;;;;;;10.89;55.61;100431.66;5051223;28;20375;-78
2022/04/19 06:00:48;;;;;;;22.95;8.05;;;;;;;10.97;55.08;100439.94;5051172;28;20513;-80
2022/04/19 06:05:58;;;;;;;18.50;6.88;;;;;;;11.09;54.17;100440.72;5051025;28;20120;-85
2022/04/19 06:08:23;;;;;;;14.80;6.75;;;;;;;11.05;54.63;100439.28;5052000;28;20096;-80
2022/04/19 06:10:50;;;;;;;22.30;6.13;;;;;;;11.08;54.18;100444.41;5050815;28;20061;-76
2022/04/19 06:13:16;;;;;;;21.58;8.48;;;;;;;11.02;54.44;100443.09;5050718;28;20021;-78
2022/04/19 06:15:42;;;;;;;14.48;7.80;;;;;;;11.01;54.32;100451.31;5049899;28;20075;-80
2022/04/19 06:18:07;;;;;;;13.75;6.10;;;;;;;10.74;55.38;100447.28;5051186;28;20473;-80
2022/04/19 06:20:32;;;;;;;17.80;6.43;;;;;;;10.64;55.39;100449.03;5051320;28;20021;-78
2022/04/19 06:22:58;;;;;;;9.05;6.22;;;;;;;10.70;55.32;100448.53;5051396;28;20479;-84
2022/04/19 06:25:23;;;;;;;11.20;7.22;;;;;;;10.77;54.69;100438.94;5050071;28;20460;-79
2022/04/19 06:27:49;;;;;;;9.95;7.25;;;;;;;10.81;55.12;100450.31;5050927;28;20461;-84
2022/04/19 06:30:14;;;;;;;12.63;8.05;;;;;;;10.92;55.69;100440.34;5051228;28;20017;-83
2022/04/19 06:32:41;;;;;;;13.32;7.68;;;;;;;11.10;54.59;100442.44;5050947;28;20041;-84
2022/04/19 06:35:10;;;;;;;15.07;6.60;;;;;;;11.04;54.26;100433.03;5051514;28;20033;-95
2022/04/19 06:37:35;;;;;;;14.73;7.03;;;;;;;11.02;54.00;100436.84;5057293;28;20028;-85
2022/04/19 06:40:02;;;;;;;11.40;5.20;;;;;;;11.05;53.77;100445.50;5051563;28;20095;-84
2022/04/19 06:42:29;;;;;;;14.38;6.18;;;;;;;11.06;54.47;100449.06;5050763;28;20020;-81
2022/04/19 06:44:54;;;;;;;45.90;8.57;;;;;;;11.16;53.52;100450.00;5057805;28;20025;-84
2022/04/19 06:47:20;;;;;;;17.17;6.80;;;;;;;11.13;52.64;100444.88;5052799;28;20020;-81
2022/04/19 06:49:45;;;;;;;24.40;7.00;;;;;;;10.96;52.48;100435.53;5050809;28;20467;-81
2022/04/19 06:52:10;;;;;;;17.33;6.93;;;;;;;11.15;52.83;100448.28;5051898;28;20024;-78
2022/04/19 06:54:36;;;;;;;17.38;6.45;;;;;;;11.34;52.29;100453.78;5053799;28;20032;-77
2022/04/19 06:57:01;;;;;;;9.60;5.18;;;;;;;11.42;52.21;100448.56;5060434;28;20099;-80
2022/04/19 06:59:27;;;;;;;11.35;5.72;;;;;;;11.32;52.06;100444.94;5062741;28;20035;-89
2022/04/19 07:01:53;;;;;;;10.65;5.45;;;;;;;11.39;51.79;100459.59;5062015;28;20086;-84
2022/04/19 07:04:18;;;;;;;12.60;6.28;;;;;;;11.32;51.83;100459.28;5054935;28;20406;-80
2022/04/19 07:06:44;;;;;;;13.52;5.63;;;;;;;11.33;51.84;100452.06;5054514;28;20025;-82
2022/04/19 07:09:09;;;;;;;12.00;5.60;;;;;;;11.33;52.22;100460.13;5055495;28;20029;-82
2022/04/19 07:11:36;;;;;;;9.15;5.30;;;;;;;11.23;52.71;100456.53;5054258;28;20021;-83
2022/04/19 07:14:05;;;;;;;6.43;5.35;;;;;;;11.30;51.27;100463.94;5054281;28;20479;-82
2022/04/19 07:16:32;;;;;;;14.40;7.05;;;;;;;11.30;51.89;100455.00;5054452;28;20021;-83
2022/04/19 07:18:58;;;;;;;10.93;5.35;;;;;;;11.48;50.63;100478.50;5054873;28;20021;-78
2022/04/19 07:26:52;;;;;;;12.68;5.57;;;;;;;11.91;50.84;100466.66;5054255;28;20474;-80
2022/04/19 07:29:18;;;;;;;35.47;6.43;;;;;;;12.08;50.37;100467.84;5054077;28;20025;-81
2022/04/19 07:31:48;;;;;;;41.95;7.28;;;;;;;11.82;50.58;100446.78;5053966;28;20357;-82
2022/04/19 07:34:14;;;;;;;13.52;6.55;;;;;;;12.04;49.88;100452.94;5054123;28;20246;-82
2022/04/19 07:36:40;;;;;;;16.52;7.63;;;;;;;12.04;49.14;100447.53;5053956;28;20487;-84
2022/04/19 07:39:12;;;;;;;14.65;5.18;;;;;;;12.27;47.74;100462.47;5072692;28;20024;-82
2022/04/19 07:41:38;;;;;;;30.95;6.30;;;;;;;12.33;47.01;100472.69;5056650;28;20082;-84
2022/04/19 07:44:05;;;;;;;24.13;5.32;;;;;;;12.36;47.66;100467.03;5054135;28;20032;-84
2022/04/19 07:46:31;;;;;;;19.85;7.35;;;;;;;12.43;47.43;100470.88;5054046;28;20036;-85
2022/04/19 07:48:57;;;;;;;69.10;11.38;;;;;;;12.52;48.03;100465.50;5053077;28;20037;-85
2022/04/19 07:51:23;;;;;;;19.02;6.47;;;;;;;12.69;48.04;100465.78;5053110;28;20112;-83
2022/04/19 07:53:49;;;;;;;20.25;6.35;;;;;;;12.76;47.32;100459.66;5053767;28;20068;-85
2022/04/19 07:56:14;;;;;;;15.18;8.85;;;;;;;12.59;47.67;100444.19;5053617;28;20020;-84
2022/04/19 07:58:42;;;;;;;12.70;6.45;;;;;;;12.56;47.68;100460.66;5053776;28;20400;-86
2022/04/19 08:01:08;;;;;;;10.73;6.03;;;;;;;12.57;49.25;100459.66;5052578;28;20032;-79
2022/04/19 08:03:35;;;;;;;12.98;6.45;;;;;;;12.45;49.73;100458.94;5053319;28;20093;-80
2022/04/19 08:06:00;;;;;;;26.20;8.32;;;;;;;12.37;49.73;100471.44;5051348;28;20033;-80
2022/04/19 08:08:26;;;;;;;15.90;6.97;;;;;;;12.24;49.20;100477.09;5053096;28;20094;-79
2022/04/19 08:10:51;;;;;;;28.05;7.65;;;;;;;12.22;48.89;100472.81;5053126;28;20031;-79
2022/04/19 08:13:17;;;;;;;13.90;6.07;;;;;;;12.00;48.90;100460.44;5053160;28;20164;-79
2022/04/19 08:15:43;;;;;;;11.75;5.97;;;;;;;11.91;48.61;100464.81;5052409;28;20052;-78
2022/04/19 08:18:14;;;;;;;8.85;5.47;;;;;;;11.91;49.99;100474.72;5052699;28;20029;-81
2022/04/19 08:20:40;;;;;;;10.02;6.00;;;;;;;11.95;50.13;100460.84;5051024;28;20440;-80
2022/04/19 08:23:07;;;;;;;9.75;6.43;;;;;;;12.06;50.83;100473.34;5053048;28;20025;-79
2022/04/19 08:25:34;;;;;;;11.48;6.20;;;;;;;12.18;50.82;100463.31;5053465;28;20067;-80
2022/04/19 08:27:59;;;;;;;17.58;5.97;;;;;;;12.23;49.66;100469.16;5051331;28;20414;-81
2022/04/19 08:30:25;;;;;;;11.95;5.30;;;;;;;12.18;49.97;100455.22;5052201;28;20021;-81
2022/04/19 08:32:50;;;;;;;11.77;5.60;;;;;;;12.15;51.62;100466.28;5052194;28;20053;-79
2022/04/19 08:35:19;;;;;;;12.93;6.63;;;;;;;12.18;51.42;100463.31;5052502;28;20540;-79
2022/04/19 08:37:48;;;;;;;11.35;5.70;;;;;;;12.25;51.25;100459.06;5051086;28;20036;-79
2022/04/19 08:40:14;;;;;;;11.73;6.53;;;;;;;12.35;49.45;100463.47;5052739;28;20338;-80
2022/04/19 08:42:41;;;;;;;10.65;6.10;;;;;;;12.39;48.73;100454.13;5052432;28;20437;-80
2022/04/19 08:45:09;;;;;;;37.80;6.82;;;;;;;12.50;48.71;100459.41;5052657;28;20151;-80
2022/04/19 08:47:40;;;;;;;53.15;7.65;;;;;;;12.67;48.17;100467.75;5051010;28;20027;-80
2022/04/19 08:50:11;;;;;;;14.88;5.75;;;;;;;12.77;47.99;100476.72;5052145;28;20514;-80
2022/04/19 08:52:38;;;;;;;14.80;5.30;;;;;;;12.80;46.95;100482.69;5051811;28;20039;-79
2022/04/19 08:57:53;;;;;;;11.70;5.55;;;;;;;12.60;47.32;100472.84;5052643;28;20460;-79
2022/04/19 09:00:23;;;;;;;7.40;4.07;;;;;;;12.40;46.69;100481.94;5052020;28;20024;-81
2022/04/19 09:02:54;;;;;;;10.45;5.13;;;;;;;12.52;47.45;100486.22;5052216;28;20055;-81
2022/04/19 09:05:26;;;;;;;11.90;5.18;;;;;;;12.44;48.43;100489.63;5052442;28;20094;-80
2022/04/19 09:07:53;;;;;;;19.85;5.97;;;;;;;12.50;47.85;100478.28;5051887;28;20059;-80
2022/04/19 09:10:30;;;;;;;7.88;5.10;;;;;;;12.37;47.87;100487.63;5050818;28;20033;-81
2022/04/19 09:12:56;;;;;;;6.30;4.45;;;;;;;12.36;47.34;100483.19;5052064;28;20509;-81
2022/04/19 09:15:21;;;;;;;10.90;6.88;;;;;;;12.32;47.76;100473.69;5051711;28;20037;-81
2022/04/19 09:17:48;;;;;;;7.90;5.18;;;;;;;12.59;47.92;100481.09;5051279;28;20108;-80
2022/04/19 09:20:18;;;;;;;10.85;5.28;;;;;;;12.67;49.22;100483.94;5051656;28;20071;-79
2022/04/19 09:22:50;;;;;;;12.93;5.55;;;;;;;12.62;46.37;100476.28;5052034;28;20051;-81
2022/04/19 09:25:19;;;;;;;11.82;5.18;;;;;;;12.65;47.02;100481.41;5052727;28;20059;-80
2022/04/19 09:27:45;;;;;;;11.65;4.10;;;;;;;12.70;46.35;100471.03;5052407;28;20441;-80
2022/04/19 09:30:34;;;;;;;16.25;4.88;;;;;;;12.69;45.14;100477.41;5055423;28;20020;-78
2022/04/19 09:33:08;;;;;;;70.15;8.13;;;;;;;12.75;46.13;100476.84;5061524;28;20430;-79
2022/04/19 09:35:34;;;;;;;22.58;5.50;;;;;;;12.53;44.97;100474.44;5052377;28;20064;-79
2022/04/19 09:37:59;;;;;;;68.20;9.27;;;;;;;12.57;45.36;100483.94;5051894;28;20060;-80
2022/04/19 09:40:29;;;;;;;26.35;7.05;;;;;;;12.53;45.29;100471.75;5051785;28;20475;-79
2022/04/19 09:42:55;;;;;;;15.77;5.07;;;;;;;12.53;45.01;100479.84;5051923;28;20095;-79
2022/04/19 09:45:22;;;;;;;47.25;6.93;;;;;;;12.40;45.63;100473.84;5051238;28;20053;-78
2022/04/19 09:47:51;;;;;;;27.67;7.40;;;;;;;12.60;45.91;100477.44;5051331;28;20498;-79
2022/04/19 09:50:17;;;;;;;21.08;5.55;;;;;;;12.71;45.86;100475.44;5051745;28;20036;-79
2022/04/19 09:52:48;;;;;;;11.63;3.70;;;;;;;12.67;44.88;100484.81;5051279;28;20107;-79
2022/04/19 09:55:15;;;;;;;35.97;5.95;;;;;;;12.60;44.64;100480.94;5051287;28;20040;-80
2022/04/19 09:57:43;;;;;;;52.95;8.02;;;;;;;12.57;45.28;100473.13;5051094;28;20059;-80
2022/04/19 10:00:14;;;;;;;23.05;5.53;;;;;;;12.73;44.62;100489.63;5050984;28;20025;-78
2022/04/19 10:08:19;;;;;;;23.42;6.80;;;;;;;12.57;44.01;100486.63;5051262;28;20040;-79
2022/04/19 10:10:47;;;;;;;22.63;4.70;;;;;;;12.45;45.00;100482.34;5051252;28;20056;-79
2022/04/19 10:13:13;;;;;;;16.85;5.22;;;;;;;12.44;45.61;100484.22;5051114;28;20421;-79
2022/04/19 10:15:40;;;;;;;45.75;6.50;;;;;;;12.51;46.06;100485.34;5048697;28;20082;-79
2022/04/19 10:18:07;;;;;;;29.13;6.63;;;;;;;12.57;46.66;100492.88;5050606;28;20029;-79
2022/04/19 10:20:36;;;;;;;7.90;4.43;;;;;;;12.54;47.26;100486.91;5050356;28;20021;-80
2022/04/19 10:23:08;;;;;;;18.35;5.88;;;;;;;12.65;46.40;100491.34;5050946;28;20497;-80
2022/04/19 10:25:44;;;;;;;95.75;12.50;;;;;;;12.70;47.96;100494.44;5050732;28;20040;-79
2022/04/19 10:28:15;;;;;;;34.65;5.25;;;;;;;12.82;46.55;100496.00;5050687;28;20483;-79
2022/04/19 10:30:51;;;;;;;15.15;6.25;;;;;;;12.88;46.97;100498.13;5050651;28;20126;-80
2022/04/19 10:33:42;;;;;;;31.10;6.43;;;;;;;12.64;47.77;100506.66;5051038;28;20110;-80
2022/04/19 10:36:13;;;;;;;61.78;9.38;;;;;;;12.50;48.56;100504.38;5050459;28;20414;-80
2022/04/19 10:38:39;;;;;;;25.67;6.47;;;;;;;12.36;48.62;100507.47;5050744;28;20021;-79
2022/04/19 10:41:05;;;;;;;9.95;5.20;;;;;;;12.08;48.71;100510.97;5050754;28;20104;-79
2022/04/19 10:43:30;;;;;;;29.70;6.57;;;;;;;12.20;48.87;100499.09;5052568;28;20147;-80
2022/04/19 10:46:21;;;;;;;22.98;5.15;;;;;;;12.23;48.29;100506.91;5054629;28;20028;-80
2022/04/19 10:49:21;;;;;;;83.93;12.85;;;;;;;12.34;48.37;100514.84;5054536;28;20120;-79
2022/04/19 10:51:47;;;;;;;83.60;9.73;;;;;;;12.36;47.56;100497.53;5054427;28;20025;-79
2022/04/19 10:54:15;;;;;;;14.38;5.55;;;;;;;12.15;47.38;100506.72;5054999;28;20037;-79
2022/04/19 10:57:13;;;;;;;45.10;6.45;;;;;;;12.23;47.68;100504.19;5054451;28;20406;-79
2022/04/19 10:59:39;;;;;;;48.58;7.20;;;;;;;12.22;47.32;100510.56;5049131;28;20037;-79
2022/04/19 11:02:35;;;;;;;13.77;4.63;;;;;;;12.25;46.51;100507.59;5054395;28;20036;-79
2022/04/19 11:05:02;;;;;;;7.82;4.40;;;;;;;12.19;46.48;100505.47;5053949;28;20029;-79
2022/04/19 11:07:42;;;;;;;11.15;5.05;;;;;;;12.21;46.49;100506.16;5054720;28;20039;-78
2022/04/19 11:10:07;;;;;;;65.43;16.77;;;;;;;12.36;47.54;100491.28;5055554;28;20067;-79
2022/04/19 11:13:02;;;;;;;7.82;4.72;;;;;;;12.00;46.99;100507.09;5054759;28;20064;-79
2022/04/19 11:15:42;;;;;;;17.30;5.30;;;;;;;11.82;47.68;100507.88;5044929;28;20045;-79
2022/04/19 11:18:23;;;;;;;31.95;5.90;;;;;;;11.57;49.38;100502.91;5054205;28;20482;-79
2022/04/19 11:20:56;;;;;;;32.73;7.67;;;;;;;11.61;49.82;100518.69;5053890;28;20099;-79
2022/04/19 11:23:25;;;;;;;;;;;;;;;11.60;50.93;100502.63;5053912;28;20033;-77
2022/04/19 11:25:52;;;;;;;14.18;4.95;;;;;;;11.40;50.30;100518.72;5058873;28;19919;-80
2022/04/19 11:28:25;;;;;;;22.80;5.43;;;;;;;11.37;50.64;100515.44;5053991;28;20028;-80
2022/04/19 11:30:57;;;;;;;8.73;4.07;;;;;;;11.24;50.49;100512.06;5053884;28;20039;-80
2022/04/19 11:33:33;;;;;;;29.15;6.18;;;;;;;11.25;52.15;100503.03;5053331;28;20048;-80
2022/04/19 11:36:19;;;;;;;12.85;5.35;;;;;;;11.34;51.47;100507.63;5053695;28;20380;-80
2022/04/19 11:38:47;;;;;;;9.77;4.63;;;;;;;11.13;50.74;100514.84;5054103;28;20021;-81
2022/04/19 11:46:44;;;;;;;8.45;5.18;;;;;;;11.27;54.41;100515.38;5053772;28;20171;-80
2022/04/19 11:49:18;;;;;;;17.83;5.28;;;;;;;11.35;53.91;100520.06;5053337;28;20025;-79
2022/04/19 11:51:52;;;;;;;7.55;4.18;;;;;;;11.52;53.49;100508.72;5053574;28;20112;-80
2022/04/19 11:54:26;;;;;;;8.07;4.78;;;;;;;11.55;52.30;100511.13;5051417;28;20045;-81
2022/04/19 11:56:56;;;;;;;5.40;4.15;;;;;;;11.66;52.84;100512.88;5053271;28;20082;-79